sensor_id;sensor_type;location;lat;lon;timestamp;P1;durP1;ratioP1;P2;durP2;ratioP2
69005;SDS011;56061;51.748;19.620;2022-08-03T00:01:23;8.50;;;5.70;;
69005;SDS011;56061;51.748;19.620;2022-08-03T00:03:50;10.20;;;6.30;;
69005;SDS011;56061;51.748;19.620;2022-08-03T00:06:17;9.20;;;6.40;;
69005;SDS011;56061;51.748;19.620;2022-08-03T00:08:43;8.80;;;6.10;;
69005;SDS011;56061;51.748;19.620;2022-08-03T00:11:10;11.80;;;7.40;;
69005;SDS011;56061;51.748;19.620;2022-08-03T00:13:37;13.20;;;8.60;;
69005;SDS011;56061;51.748;19.620;2022-08-03T00:16:04;10.10;;;7.40;;
69005;SDS011;56061;51.748;19.620;2022-08-03T00:18:30;11.70;;;6.80;;
69005;SDS011;56061;51.748;19.620;2022-08-03T00:20:57;12.80;;;7.00;;
69005;SDS011;56061;51.748;19.620;2022-08-03T00:23:24;9.50;;;5.70;;
69005;SDS011;56061;51.748;19.620;2022-08-03T00:25:53;11.30;;;7.30;;
69005;SDS011;56061;51.748;19.620;2022-08-03T00:28:20;9.80;;;6.20;;
69005;SDS011;56061;51.748;19.620;2022-08-03T00:30:46;9.70;;;6.10;;
69005;SDS011;56061;51.748;19.620;2022-08-03T00:33:13;10.60;;;5.90;;
69005;SDS011;56061;51.748;19.620;2022-08-03T00:35:40;9.90;;;6.30;;
69005;SDS011;56061;51.748;19.620;2022-08-03T00:38:17;11.10;;;6.30;;
69005;SDS011;56061;51.748;19.620;2022-08-03T00:40:44;10.80;;;5.90;;
69005;SDS011;56061;51.748;19.620;2022-08-03T00:43:11;12.20;;;6.30;;
69005;SDS011;56061;51.748;19.620;2022-08-03T00:45:39;9.40;;;6.00;;
69005;SDS011;56061;51.748;19.620;2022-08-03T00:48:10;10.20;;;6.30;;
69005;SDS011;56061;51.748;19.620;2022-08-03T00:50:57;10.80;;;6.20;;
69005;SDS011;56061;51.748;19.620;2022-08-03T00:53:24;8.60;;;5.60;;
69005;SDS011;56061;51.748;19.620;2022-08-03T00:55:52;9.70;;;5.90;;
69005;SDS011;56061;51.748;19.620;2022-08-03T00:58:18;11.90;;;6.30;;
69005;SDS011;56061;51.748;19.620;2022-08-03T01:00:45;9.00;;;6.30;;
69005;SDS011;56061;51.748;19.620;2022-08-03T01:03:12;9.50;;;5.70;;
69005;SDS011;56061;51.748;19.620;2022-08-03T01:08:38;11.50;;;6.00;;
69005;SDS011;56061;51.748;19.620;2022-08-03T01:11:26;7.80;;;5.40;;
69005;SDS011;56061;51.748;19.620;2022-08-03T01:14:31;8.50;;;5.10;;
69005;SDS011;56061;51.748;19.620;2022-08-03T01:17:11;8.10;;;5.20;;
69005;SDS011;56061;51.748;19.620;2022-08-03T01:19:59;8.20;;;5.70;;
69005;SDS011;56061;51.748;19.620;2022-08-03T01:22:59;8.20;;;5.30;;
69005;SDS011;56061;51.748;19.620;2022-08-03T01:26:12;9.50;;;5.20;;
69005;SDS011;56061;51.748;19.620;2022-08-03T01:29:07;15.70;;;6.40;;
69005;SDS011;56061;51.748;19.620;2022-08-03T01:32:09;10.80;;;5.50;;
69005;SDS011;56061;51.748;19.620;2022-08-03T01:35:04;8.30;;;5.50;;
69005;SDS011;56061;51.748;19.620;2022-08-03T01:37:47;8.60;;;5.50;;
69005;SDS011;56061;51.748;19.620;2022-08-03T01:40:19;10.00;;;6.20;;
69005;SDS011;56061;51.748;19.620;2022-08-03T01:42:48;11.10;;;5.80;;
69005;SDS011;56061;51.748;19.620;2022-08-03T01:45:16;9.90;;;5.70;;
69005;SDS011;56061;51.748;19.620;2022-08-03T01:47:45;9.70;;;6.60;;
69005;SDS011;56061;51.748;19.620;2022-08-03T01:50:14;9.60;;;5.60;;
69005;SDS011;56061;51.748;19.620;2022-08-03T01:52:45;9.00;;;5.70;;
69005;SDS011;56061;51.748;19.620;2022-08-03T01:55:16;8.20;;;5.10;;
69005;SDS011;56061;51.748;19.620;2022-08-03T01:57:45;7.90;;;5.20;;
69005;SDS011;56061;51.748;19.620;2022-08-03T02:00:34;12.20;;;5.90;;
69005;SDS011;56061;51.748;19.620;2022-08-03T02:03:06;9.60;;;5.90;;
69005;SDS011;56061;51.748;19.620;2022-08-03T02:05:37;8.80;;;5.90;;
69005;SDS011;56061;51.748;19.620;2022-08-03T02:08:06;8.30;;;5.70;;
69005;SDS011;56061;51.748;19.620;2022-08-03T02:13:29;8.30;;;5.20;;
69005;SDS011;56061;51.748;19.620;2022-08-03T02:15:59;8.00;;;4.90;;
69005;SDS011;56061;51.748;19.620;2022-08-03T02:18:30;8.00;;;5.20;;
69005;SDS011;56061;51.748;19.620;2022-08-03T02:21:00;8.60;;;4.70;;
69005;SDS011;56061;51.748;19.620;2022-08-03T02:23:37;9.00;;;5.10;;
69005;SDS011;56061;51.748;19.620;2022-08-03T02:26:06;7.60;;;5.00;;
69005;SDS011;56061;51.748;19.620;2022-08-03T02:28:40;9.70;;;5.20;;
69005;SDS011;56061;51.748;19.620;2022-08-03T02:31:12;7.90;;;5.10;;
69005;SDS011;56061;51.748;19.620;2022-08-03T02:33:51;7.30;;;4.60;;
69005;SDS011;56061;51.748;19.620;2022-08-03T02:36:24;9.10;;;5.20;;
69005;SDS011;56061;51.748;19.620;2022-08-03T02:38:58;8.80;;;4.90;;
69005;SDS011;56061;51.748;19.620;2022-08-03T02:41:30;7.90;;;5.20;;
69005;SDS011;56061;51.748;19.620;2022-08-03T02:44:07;8.00;;;5.10;;
69005;SDS011;56061;51.748;19.620;2022-08-03T02:46:42;8.00;;;5.00;;
69005;SDS011;56061;51.748;19.620;2022-08-03T02:49:12;9.00;;;5.20;;
69005;SDS011;56061;51.748;19.620;2022-08-03T02:52:02;10.40;;;6.20;;
69005;SDS011;56061;51.748;19.620;2022-08-03T02:54:38;8.00;;;5.20;;
69005;SDS011;56061;51.748;19.620;2022-08-03T02:57:07;9.70;;;5.60;;
69005;SDS011;56061;51.748;19.620;2022-08-03T02:59:36;7.70;;;4.70;;
69005;SDS011;56061;51.748;19.620;2022-08-03T03:02:04;9.00;;;5.10;;
69005;SDS011;56061;51.748;19.620;2022-08-03T03:04:32;9.40;;;4.50;;
69005;SDS011;56061;51.748;19.620;2022-08-03T03:07:01;8.80;;;5.10;;
69005;SDS011;56061;51.748;19.620;2022-08-03T03:09:31;7.50;;;4.80;;
69005;SDS011;56061;51.748;19.620;2022-08-03T03:12:08;8.00;;;4.20;;
69005;SDS011;56061;51.748;19.620;2022-08-03T03:14:37;7.40;;;4.50;;
69005;SDS011;56061;51.748;19.620;2022-08-03T03:17:08;9.90;;;5.00;;
69005;SDS011;56061;51.748;19.620;2022-08-03T03:19:38;9.20;;;4.30;;
69005;SDS011;56061;51.748;19.620;2022-08-03T03:22:06;8.20;;;4.30;;
69005;SDS011;56061;51.748;19.620;2022-08-03T03:24:35;8.20;;;4.20;;
69005;SDS011;56061;51.748;19.620;2022-08-03T03:27:03;9.10;;;4.30;;
69005;SDS011;56061;51.748;19.620;2022-08-03T03:29:31;7.00;;;4.40;;
69005;SDS011;56061;51.748;19.620;2022-08-03T03:32:04;8.20;;;4.30;;
69005;SDS011;56061;51.748;19.620;2022-08-03T03:34:35;8.70;;;3.80;;
69005;SDS011;56061;51.748;19.620;2022-08-03T03:37:02;9.90;;;4.70;;
69005;SDS011;56061;51.748;19.620;2022-08-03T03:39:30;9.20;;;5.20;;
69005;SDS011;56061;51.748;19.620;2022-08-03T03:41:57;9.80;;;4.90;;
69005;SDS011;56061;51.748;19.620;2022-08-03T03:44:30;7.90;;;4.40;;
69005;SDS011;56061;51.748;19.620;2022-08-03T03:46:57;9.00;;;4.00;;
69005;SDS011;56061;51.748;19.620;2022-08-03T03:49:24;7.60;;;4.70;;
69005;SDS011;56061;51.748;19.620;2022-08-03T03:51:53;7.90;;;4.60;;
69005;SDS011;56061;51.748;19.620;2022-08-03T03:54:20;9.80;;;4.60;;
69005;SDS011;56061;51.748;19.620;2022-08-03T03:56:51;8.40;;;4.80;;
69005;SDS011;56061;51.748;19.620;2022-08-03T03:59:17;8.20;;;4.70;;
69005;SDS011;56061;51.748;19.620;2022-08-03T04:01:44;8.20;;;4.70;;
69005;SDS011;56061;51.748;19.620;2022-08-03T04:04:11;9.60;;;4.80;;
69005;SDS011;56061;51.748;19.620;2022-08-03T04:06:56;10.70;;;4.60;;
69005;SDS011;56061;51.748;19.620;2022-08-03T04:09:41;12.30;;;4.80;;
69005;SDS011;56061;51.748;19.620;2022-08-03T04:12:40;8.00;;;4.60;;
69005;SDS011;56061;51.748;19.620;2022-08-03T04:15:18;12.80;;;5.20;;
69005;SDS011;56061;51.748;19.620;2022-08-03T04:17:47;11.30;;;4.80;;
69005;SDS011;56061;51.748;19.620;2022-08-03T04:20:17;10.40;;;5.00;;
69005;SDS011;56061;51.748;19.620;2022-08-03T04:22:48;9.90;;;4.50;;
69005;SDS011;56061;51.748;19.620;2022-08-03T04:25:19;11.10;;;4.80;;
69005;SDS011;56061;51.748;19.620;2022-08-03T04:27:51;10.50;;;5.10;;
69005;SDS011;56061;51.748;19.620;2022-08-03T04:30:44;10.20;;;5.30;;
69005;SDS011;56061;51.748;19.620;2022-08-03T04:33:15;9.70;;;5.60;;
69005;SDS011;56061;51.748;19.620;2022-08-03T04:35:45;10.20;;;5.20;;
69005;SDS011;56061;51.748;19.620;2022-08-03T04:38:29;8.30;;;5.20;;
69005;SDS011;56061;51.748;19.620;2022-08-03T04:40:58;9.50;;;4.90;;
69005;SDS011;56061;51.748;19.620;2022-08-03T04:43:27;8.10;;;4.70;;
69005;SDS011;56061;51.748;19.620;2022-08-03T04:45:55;8.70;;;4.80;;
69005;SDS011;56061;51.748;19.620;2022-08-03T04:48:23;9.50;;;4.70;;
69005;SDS011;56061;51.748;19.620;2022-08-03T04:50:50;11.50;;;5.60;;
69005;SDS011;56061;51.748;19.620;2022-08-03T04:53:17;11.30;;;5.50;;
69005;SDS011;56061;51.748;19.620;2022-08-03T04:55:45;12.00;;;5.30;;
69005;SDS011;56061;51.748;19.620;2022-08-03T04:58:11;12.70;;;6.30;;
69005;SDS011;56061;51.748;19.620;2022-08-03T05:00:38;11.70;;;5.60;;
69005;SDS011;56061;51.748;19.620;2022-08-03T05:03:05;12.30;;;6.10;;
69005;SDS011;56061;51.748;19.620;2022-08-03T05:05:51;10.00;;;6.10;;
69005;SDS011;56061;51.748;19.620;2022-08-03T05:08:18;13.90;;;5.80;;
69005;SDS011;56061;51.748;19.620;2022-08-03T05:10:53;9.30;;;5.60;;
69005;SDS011;56061;51.748;19.620;2022-08-03T05:13:24;11.80;;;6.30;;
69005;SDS011;56061;51.748;19.620;2022-08-03T05:15:51;11.90;;;5.90;;
69005;SDS011;56061;51.748;19.620;2022-08-03T05:18:18;14.50;;;6.30;;
69005;SDS011;56061;51.748;19.620;2022-08-03T05:20:44;12.90;;;6.80;;
69005;SDS011;56061;51.748;19.620;2022-08-03T05:23:11;18.70;;;7.50;;
69005;SDS011;56061;51.748;19.620;2022-08-03T05:25:37;12.80;;;7.10;;
69005;SDS011;56061;51.748;19.620;2022-08-03T05:28:04;12.60;;;6.90;;
69005;SDS011;56061;51.748;19.620;2022-08-03T05:30:31;15.60;;;7.20;;
69005;SDS011;56061;51.748;19.620;2022-08-03T05:33:00;17.10;;;7.60;;
69005;SDS011;56061;51.748;19.620;2022-08-03T05:35:29;19.00;;;8.00;;
69005;SDS011;56061;51.748;19.620;2022-08-03T05:38:16;16.40;;;7.40;;
69005;SDS011;56061;51.748;19.620;2022-08-03T05:40:54;13.30;;;6.70;;
69005;SDS011;56061;51.748;19.620;2022-08-03T05:43:41;14.80;;;7.60;;
69005;SDS011;56061;51.748;19.620;2022-08-03T05:46:08;13.60;;;7.90;;
69005;SDS011;56061;51.748;19.620;2022-08-03T05:48:38;15.80;;;8.20;;
69005;SDS011;56061;51.748;19.620;2022-08-03T05:51:05;15.70;;;8.30;;
69005;SDS011;56061;51.748;19.620;2022-08-03T05:53:33;13.10;;;7.60;;
69005;SDS011;56061;51.748;19.620;2022-08-03T05:56:00;15.60;;;9.40;;
69005;SDS011;56061;51.748;19.620;2022-08-03T05:58:40;15.60;;;9.10;;
69005;SDS011;56061;51.748;19.620;2022-08-03T06:01:11;12.70;;;9.40;;
69005;SDS011;56061;51.748;19.620;2022-08-03T06:03:38;13.90;;;9.60;;
69005;SDS011;56061;51.748;19.620;2022-08-03T06:06:05;12.80;;;8.10;;
69005;SDS011;56061;51.748;19.620;2022-08-03T06:08:33;12.90;;;8.80;;
69005;SDS011;56061;51.748;19.620;2022-08-03T06:10:59;10.90;;;8.00;;
69005;SDS011;56061;51.748;19.620;2022-08-03T06:13:26;12.90;;;8.90;;
69005;SDS011;56061;51.748;19.620;2022-08-03T06:15:53;12.40;;;7.90;;
69005;SDS011;56061;51.748;19.620;2022-08-03T06:18:19;12.40;;;8.50;;
69005;SDS011;56061;51.748;19.620;2022-08-03T06:20:46;14.20;;;9.00;;
69005;SDS011;56061;51.748;19.620;2022-08-03T06:23:15;12.60;;;8.80;;
69005;SDS011;56061;51.748;19.620;2022-08-03T06:25:43;12.40;;;8.20;;
69005;SDS011;56061;51.748;19.620;2022-08-03T06:28:10;11.80;;;7.60;;
69005;SDS011;56061;51.748;19.620;2022-08-03T06:30:59;9.30;;;5.20;;
69005;SDS011;56061;51.748;19.620;2022-08-03T06:33:26;7.40;;;4.70;;
69005;SDS011;56061;51.748;19.620;2022-08-03T06:36:13;8.10;;;4.20;;
69005;SDS011;56061;51.748;19.620;2022-08-03T06:38:40;9.00;;;5.10;;
69005;SDS011;56061;51.748;19.620;2022-08-03T06:41:07;8.60;;;4.80;;
69005;SDS011;56061;51.748;19.620;2022-08-03T06:43:33;8.20;;;5.00;;
69005;SDS011;56061;51.748;19.620;2022-08-03T06:46:03;8.50;;;5.60;;
69005;SDS011;56061;51.748;19.620;2022-08-03T06:48:31;9.00;;;5.60;;
69005;SDS011;56061;51.748;19.620;2022-08-03T06:50:58;8.30;;;5.40;;
69005;SDS011;56061;51.748;19.620;2022-08-03T06:53:24;8.10;;;4.80;;
69005;SDS011;56061;51.748;19.620;2022-08-03T06:55:51;9.60;;;5.30;;
69005;SDS011;56061;51.748;19.620;2022-08-03T06:58:21;8.70;;;5.70;;
69005;SDS011;56061;51.748;19.620;2022-08-03T07:00:48;8.20;;;5.20;;
69005;SDS011;56061;51.748;19.620;2022-08-03T07:03:15;7.70;;;4.90;;
69005;SDS011;56061;51.748;19.620;2022-08-03T07:05:42;8.00;;;4.30;;
69005;SDS011;56061;51.748;19.620;2022-08-03T07:08:12;9.50;;;4.50;;
69005;SDS011;56061;51.748;19.620;2022-08-03T07:10:39;10.20;;;4.60;;
69005;SDS011;56061;51.748;19.620;2022-08-03T07:13:06;9.60;;;4.70;;
69005;SDS011;56061;51.748;19.620;2022-08-03T07:15:33;7.60;;;5.10;;
69005;SDS011;56061;51.748;19.620;2022-08-03T07:18:20;8.30;;;4.50;;
69005;SDS011;56061;51.748;19.620;2022-08-03T07:20:55;9.50;;;4.60;;
69005;SDS011;56061;51.748;19.620;2022-08-03T07:23:22;7.10;;;4.20;;
69005;SDS011;56061;51.748;19.620;2022-08-03T07:25:50;6.10;;;3.70;;
69005;SDS011;56061;51.748;19.620;2022-08-03T07:28:17;5.80;;;3.60;;
69005;SDS011;56061;51.748;19.620;2022-08-03T07:30:44;6.80;;;3.40;;
69005;SDS011;56061;51.748;19.620;2022-08-03T07:33:10;6.30;;;3.40;;
69005;SDS011;56061;51.748;19.620;2022-08-03T07:35:37;5.60;;;3.40;;
69005;SDS011;56061;51.748;19.620;2022-08-03T07:38:04;5.50;;;3.40;;
69005;SDS011;56061;51.748;19.620;2022-08-03T07:40:31;5.30;;;3.00;;
69005;SDS011;56061;51.748;19.620;2022-08-03T07:42:58;5.60;;;3.20;;
69005;SDS011;56061;51.748;19.620;2022-08-03T07:45:25;6.00;;;3.00;;
69005;SDS011;56061;51.748;19.620;2022-08-03T07:47:52;6.30;;;3.00;;
69005;SDS011;56061;51.748;19.620;2022-08-03T07:50:20;5.10;;;3.30;;
69005;SDS011;56061;51.748;19.620;2022-08-03T07:52:48;5.30;;;3.30;;
69005;SDS011;56061;51.748;19.620;2022-08-03T07:55:24;5.70;;;3.40;;
69005;SDS011;56061;51.748;19.620;2022-08-03T07:58:17;5.00;;;3.10;;
69005;SDS011;56061;51.748;19.620;2022-08-03T08:00:49;6.30;;;3.10;;
69005;SDS011;56061;51.748;19.620;2022-08-03T08:03:19;6.10;;;3.20;;
69005;SDS011;56061;51.748;19.620;2022-08-03T08:05:47;4.00;;;2.70;;
69005;SDS011;56061;51.748;19.620;2022-08-03T08:08:14;4.40;;;3.00;;
69005;SDS011;56061;51.748;19.620;2022-08-03T08:10:41;4.80;;;2.80;;
69005;SDS011;56061;51.748;19.620;2022-08-03T08:13:23;5.00;;;3.10;;
69005;SDS011;56061;51.748;19.620;2022-08-03T08:15:50;4.70;;;3.30;;
69005;SDS011;56061;51.748;19.620;2022-08-03T08:18:17;4.90;;;3.20;;
69005;SDS011;56061;51.748;19.620;2022-08-03T08:20:43;5.30;;;3.40;;
69005;SDS011;56061;51.748;19.620;2022-08-03T08:23:10;4.90;;;3.20;;
69005;SDS011;56061;51.748;19.620;2022-08-03T08:25:57;5.30;;;3.40;;
69005;SDS011;56061;51.748;19.620;2022-08-03T08:28:23;6.30;;;4.00;;
69005;SDS011;56061;51.748;19.620;2022-08-03T08:30:59;5.70;;;4.00;;
69005;SDS011;56061;51.748;19.620;2022-08-03T08:33:26;6.30;;;3.80;;
69005;SDS011;56061;51.748;19.620;2022-08-03T08:36:13;5.90;;;4.30;;
69005;SDS011;56061;51.748;19.620;2022-08-03T08:38:41;6.90;;;4.10;;
69005;SDS011;56061;51.748;19.620;2022-08-03T08:41:10;6.00;;;4.30;;
69005;SDS011;56061;51.748;19.620;2022-08-03T08:43:40;6.60;;;4.50;;
69005;SDS011;56061;51.748;19.620;2022-08-03T08:46:10;6.40;;;4.70;;
69005;SDS011;56061;51.748;19.620;2022-08-03T08:48:49;7.50;;;4.20;;
69005;SDS011;56061;51.748;19.620;2022-08-03T08:51:19;7.70;;;4.50;;
69005;SDS011;56061;51.748;19.620;2022-08-03T08:53:50;6.00;;;4.40;;
69005;SDS011;56061;51.748;19.620;2022-08-03T08:56:19;7.30;;;4.90;;
69005;SDS011;56061;51.748;19.620;2022-08-03T08:58:52;7.30;;;4.80;;
69005;SDS011;56061;51.748;19.620;2022-08-03T09:01:23;5.60;;;4.30;;
69005;SDS011;56061;51.748;19.620;2022-08-03T09:03:51;6.70;;;4.30;;
69005;SDS011;56061;51.748;19.620;2022-08-03T09:06:20;6.00;;;4.00;;
69005;SDS011;56061;51.748;19.620;2022-08-03T09:08:48;6.20;;;4.50;;
69005;SDS011;56061;51.748;19.620;2022-08-03T09:11:14;6.70;;;4.40;;
69005;SDS011;56061;51.748;19.620;2022-08-03T09:13:41;5.70;;;4.00;;
69005;SDS011;56061;51.748;19.620;2022-08-03T09:18:44;8.40;;;4.20;;
69005;SDS011;56061;51.748;19.620;2022-08-03T09:21:26;7.00;;;3.90;;
69005;SDS011;56061;51.748;19.620;2022-08-03T09:24:00;5.60;;;4.00;;
69005;SDS011;56061;51.748;19.620;2022-08-03T09:26:34;6.40;;;4.00;;
69005;SDS011;56061;51.748;19.620;2022-08-03T09:29:08;6.20;;;4.10;;
69005;SDS011;56061;51.748;19.620;2022-08-03T09:31:42;6.40;;;4.10;;
69005;SDS011;56061;51.748;19.620;2022-08-03T09:34:15;6.40;;;3.90;;
69005;SDS011;56061;51.748;19.620;2022-08-03T09:36:45;5.90;;;3.90;;
69005;SDS011;56061;51.748;19.620;2022-08-03T09:39:26;8.10;;;4.50;;
69005;SDS011;56061;51.748;19.620;2022-08-03T09:42:14;6.70;;;4.30;;
69005;SDS011;56061;51.748;19.620;2022-08-03T09:44:50;6.10;;;4.40;;
69005;SDS011;56061;51.748;19.620;2022-08-03T09:47:33;6.50;;;4.30;;
69005;SDS011;56061;51.748;19.620;2022-08-03T09:50:10;6.70;;;4.30;;
69005;SDS011;56061;51.748;19.620;2022-08-03T09:52:39;6.70;;;4.50;;
69005;SDS011;56061;51.748;19.620;2022-08-03T09:55:18;5.40;;;4.10;;
69005;SDS011;56061;51.748;19.620;2022-08-03T09:58:10;6.50;;;4.20;;
69005;SDS011;56061;51.748;19.620;2022-08-03T10:00:57;5.70;;;4.40;;
69005;SDS011;56061;51.748;19.620;2022-08-03T10:03:29;6.00;;;4.40;;
69005;SDS011;56061;51.748;19.620;2022-08-03T10:05:58;6.30;;;4.20;;
69005;SDS011;56061;51.748;19.620;2022-08-03T10:08:25;5.80;;;4.30;;
69005;SDS011;56061;51.748;19.620;2022-08-03T10:10:52;6.20;;;4.20;;
69005;SDS011;56061;51.748;19.620;2022-08-03T10:13:21;6.10;;;4.50;;
69005;SDS011;56061;51.748;19.620;2022-08-03T10:15:48;7.60;;;4.60;;
69005;SDS011;56061;51.748;19.620;2022-08-03T10:18:36;7.00;;;4.60;;
69005;SDS011;56061;51.748;19.620;2022-08-03T10:21:03;5.60;;;4.70;;
69005;SDS011;56061;51.748;19.620;2022-08-03T10:23:36;6.70;;;4.60;;
69005;SDS011;56061;51.748;19.620;2022-08-03T10:26:06;5.40;;;4.40;;
69005;SDS011;56061;51.748;19.620;2022-08-03T10:28:41;6.40;;;4.50;;
69005;SDS011;56061;51.748;19.620;2022-08-03T10:31:15;6.20;;;4.40;;
69005;SDS011;56061;51.748;19.620;2022-08-03T10:33:48;6.90;;;4.20;;
69005;SDS011;56061;51.748;19.620;2022-08-03T10:36:22;8.00;;;4.50;;
69005;SDS011;56061;51.748;19.620;2022-08-03T10:38:50;6.40;;;4.20;;
69005;SDS011;56061;51.748;19.620;2022-08-03T10:41:20;6.30;;;4.60;;
69005;SDS011;56061;51.748;19.620;2022-08-03T10:44:14;5.90;;;4.40;;
69005;SDS011;56061;51.748;19.620;2022-08-03T10:46:44;7.10;;;4.50;;
69005;SDS011;56061;51.748;19.620;2022-08-03T10:49:21;6.60;;;4.80;;
69005;SDS011;56061;51.748;19.620;2022-08-03T10:52:01;7.00;;;4.20;;
69005;SDS011;56061;51.748;19.620;2022-08-03T10:54:50;6.50;;;4.10;;
69005;SDS011;56061;51.748;19.620;2022-08-03T11:00:24;5.90;;;4.30;;
69005;SDS011;56061;51.748;19.620;2022-08-03T11:03:12;8.30;;;4.30;;
69005;SDS011;56061;51.748;19.620;2022-08-03T11:05:47;6.50;;;4.40;;
69005;SDS011;56061;51.748;19.620;2022-08-03T11:08:18;6.00;;;4.30;;
69005;SDS011;56061;51.748;19.620;2022-08-03T11:10:57;6.30;;;4.10;;
69005;SDS011;56061;51.748;19.620;2022-08-03T11:13:27;6.20;;;4.70;;
69005;SDS011;56061;51.748;19.620;2022-08-03T11:15:59;6.50;;;4.70;;
69005;SDS011;56061;51.748;19.620;2022-08-03T11:18:31;5.60;;;4.40;;
69005;SDS011;56061;51.748;19.620;2022-08-03T11:20:59;6.60;;;4.30;;
69005;SDS011;56061;51.748;19.620;2022-08-03T11:23:49;6.30;;;4.70;;
69005;SDS011;56061;51.748;19.620;2022-08-03T11:26:31;6.40;;;4.60;;
69005;SDS011;56061;51.748;19.620;2022-08-03T11:29:29;5.90;;;4.10;;
69005;SDS011;56061;51.748;19.620;2022-08-03T11:31:56;6.50;;;4.70;;
69005;SDS011;56061;51.748;19.620;2022-08-03T11:34:23;5.70;;;4.30;;
69005;SDS011;56061;51.748;19.620;2022-08-03T11:37:17;5.50;;;4.10;;
69005;SDS011;56061;51.748;19.620;2022-08-03T11:39:48;6.80;;;4.30;;
69005;SDS011;56061;51.748;19.620;2022-08-03T11:44:51;5.90;;;4.50;;
69005;SDS011;56061;51.748;19.620;2022-08-03T11:47:28;5.60;;;4.30;;
69005;SDS011;56061;51.748;19.620;2022-08-03T11:49:59;6.20;;;4.80;;
69005;SDS011;56061;51.748;19.620;2022-08-03T11:52:33;6.20;;;4.30;;
69005;SDS011;56061;51.748;19.620;2022-08-03T11:55:01;5.70;;;4.40;;
69005;SDS011;56061;51.748;19.620;2022-08-03T11:57:34;7.00;;;4.30;;
69005;SDS011;56061;51.748;19.620;2022-08-03T12:00:29;5.80;;;4.50;;
69005;SDS011;56061;51.748;19.620;2022-08-03T12:02:59;6.20;;;4.60;;
69005;SDS011;56061;51.748;19.620;2022-08-03T12:05:39;7.30;;;4.70;;
69005;SDS011;56061;51.748;19.620;2022-08-03T12:08:29;6.30;;;4.90;;
69005;SDS011;56061;51.748;19.620;2022-08-03T12:10:59;7.60;;;4.50;;
69005;SDS011;56061;51.748;19.620;2022-08-03T12:13:36;6.40;;;4.50;;
69005;SDS011;56061;51.748;19.620;2022-08-03T12:16:28;6.40;;;4.50;;
69005;SDS011;56061;51.748;19.620;2022-08-03T12:18:59;6.00;;;4.30;;
69005;SDS011;56061;51.748;19.620;2022-08-03T12:21:28;5.40;;;4.20;;
69005;SDS011;56061;51.748;19.620;2022-08-03T12:23:56;6.70;;;4.60;;
69005;SDS011;56061;51.748;19.620;2022-08-03T12:26:27;6.10;;;4.20;;
69005;SDS011;56061;51.748;19.620;2022-08-03T12:28:54;6.30;;;4.00;;
69005;SDS011;56061;51.748;19.620;2022-08-03T12:31:21;8.00;;;4.70;;
69005;SDS011;56061;51.748;19.620;2022-08-03T12:36:32;5.80;;;4.50;;
69005;SDS011;56061;51.748;19.620;2022-08-03T12:39:03;7.10;;;4.60;;
69005;SDS011;56061;51.748;19.620;2022-08-03T12:41:36;6.30;;;4.50;;
69005;SDS011;56061;51.748;19.620;2022-08-03T12:44:05;6.80;;;4.90;;
69005;SDS011;56061;51.748;19.620;2022-08-03T12:46:40;7.10;;;4.90;;
69005;SDS011;56061;51.748;19.620;2022-08-03T12:49:14;6.60;;;4.50;;
69005;SDS011;56061;51.748;19.620;2022-08-03T12:54:22;6.20;;;4.40;;
69005;SDS011;56061;51.748;19.620;2022-08-03T12:57:05;8.60;;;4.50;;
69005;SDS011;56061;51.748;19.620;2022-08-03T13:02:24;6.20;;;4.40;;
69005;SDS011;56061;51.748;19.620;2022-08-03T13:04:53;6.10;;;4.50;;
69005;SDS011;56061;51.748;19.620;2022-08-03T13:07:21;8.30;;;5.00;;
69005;SDS011;56061;51.748;19.620;2022-08-03T13:09:51;6.00;;;4.70;;
69005;SDS011;56061;51.748;19.620;2022-08-03T13:12:20;6.40;;;4.70;;
69005;SDS011;56061;51.748;19.620;2022-08-03T13:14:54;5.50;;;4.40;;
69005;SDS011;56061;51.748;19.620;2022-08-03T13:17:23;6.40;;;4.60;;
69005;SDS011;56061;51.748;19.620;2022-08-03T13:19:51;7.30;;;4.70;;
69005;SDS011;56061;51.748;19.620;2022-08-03T13:22:26;6.50;;;4.80;;
69005;SDS011;56061;51.748;19.620;2022-08-03T13:24:58;6.20;;;5.10;;
69005;SDS011;56061;51.748;19.620;2022-08-03T13:27:27;5.80;;;4.70;;
69005;SDS011;56061;51.748;19.620;2022-08-03T13:30:15;8.00;;;4.80;;
69005;SDS011;56061;51.748;19.620;2022-08-03T13:32:55;6.70;;;4.60;;
69005;SDS011;56061;51.748;19.620;2022-08-03T13:35:24;6.00;;;4.60;;
69005;SDS011;56061;51.748;19.620;2022-08-03T13:37:50;6.90;;;4.90;;
69005;SDS011;56061;51.748;19.620;2022-08-03T13:40:17;8.40;;;4.80;;
69005;SDS011;56061;51.748;19.620;2022-08-03T13:42:48;6.60;;;4.80;;
69005;SDS011;56061;51.748;19.620;2022-08-03T13:45:15;7.20;;;5.40;;
69005;SDS011;56061;51.748;19.620;2022-08-03T13:47:42;11.10;;;5.10;;
69005;SDS011;56061;51.748;19.620;2022-08-03T13:50:08;7.40;;;5.20;;
69005;SDS011;56061;51.748;19.620;2022-08-03T13:52:35;6.60;;;5.40;;
69005;SDS011;56061;51.748;19.620;2022-08-03T13:55:03;6.00;;;4.70;;
69005;SDS011;56061;51.748;19.620;2022-08-03T13:57:32;6.00;;;4.50;;
69005;SDS011;56061;51.748;19.620;2022-08-03T14:00:19;7.00;;;4.70;;
69005;SDS011;56061;51.748;19.620;2022-08-03T14:02:55;6.40;;;4.50;;
69005;SDS011;56061;51.748;19.620;2022-08-03T14:05:30;6.80;;;4.80;;
69005;SDS011;56061;51.748;19.620;2022-08-03T14:07:58;6.40;;;5.20;;
69005;SDS011;56061;51.748;19.620;2022-08-03T14:10:40;6.60;;;5.10;;
69005;SDS011;56061;51.748;19.620;2022-08-03T14:13:10;6.00;;;4.90;;
69005;SDS011;56061;51.748;19.620;2022-08-03T14:15:42;9.30;;;5.30;;
69005;SDS011;56061;51.748;19.620;2022-08-03T14:18:18;6.10;;;5.10;;
69005;SDS011;56061;51.748;19.620;2022-08-03T14:21:00;6.70;;;5.00;;
69005;SDS011;56061;51.748;19.620;2022-08-03T14:23:33;6.60;;;4.70;;
69005;SDS011;56061;51.748;19.620;2022-08-03T14:26:00;6.10;;;4.90;;
69005;SDS011;56061;51.748;19.620;2022-08-03T14:28:26;7.40;;;5.20;;
69005;SDS011;56061;51.748;19.620;2022-08-03T14:30:54;6.70;;;5.00;;
69005;SDS011;56061;51.748;19.620;2022-08-03T14:33:21;6.90;;;5.00;;
69005;SDS011;56061;51.748;19.620;2022-08-03T14:35:49;5.60;;;4.80;;
69005;SDS011;56061;51.748;19.620;2022-08-03T14:38:17;7.10;;;5.30;;
69005;SDS011;56061;51.748;19.620;2022-08-03T14:40:45;6.60;;;5.20;;
69005;SDS011;56061;51.748;19.620;2022-08-03T14:43:12;6.30;;;5.10;;
69005;SDS011;56061;51.748;19.620;2022-08-03T14:45:39;6.50;;;5.00;;
69005;SDS011;56061;51.748;19.620;2022-08-03T14:48:06;6.50;;;4.60;;
69005;SDS011;56061;51.748;19.620;2022-08-03T14:50:53;6.70;;;5.30;;
69005;SDS011;56061;51.748;19.620;2022-08-03T14:53:21;7.60;;;5.40;;
69005;SDS011;56061;51.748;19.620;2022-08-03T14:55:48;6.70;;;5.10;;
69005;SDS011;56061;51.748;19.620;2022-08-03T14:58:18;6.60;;;4.90;;
69005;SDS011;56061;51.748;19.620;2022-08-03T15:00:48;6.60;;;5.40;;
69005;SDS011;56061;51.748;19.620;2022-08-03T15:03:16;7.10;;;4.90;;
69005;SDS011;56061;51.748;19.620;2022-08-03T15:05:55;7.50;;;5.60;;
69005;SDS011;56061;51.748;19.620;2022-08-03T15:08:24;6.80;;;5.50;;
69005;SDS011;56061;51.748;19.620;2022-08-03T15:10:52;7.00;;;5.30;;
69005;SDS011;56061;51.748;19.620;2022-08-03T15:13:19;6.70;;;5.60;;
69005;SDS011;56061;51.748;19.620;2022-08-03T15:15:47;7.30;;;5.40;;
69005;SDS011;56061;51.748;19.620;2022-08-03T15:18:14;6.70;;;5.10;;
69005;SDS011;56061;51.748;19.620;2022-08-03T15:20:41;6.30;;;5.50;;
69005;SDS011;56061;51.748;19.620;2022-08-03T15:23:13;6.50;;;5.80;;